DAL357 KSLC-KDEN
Flight info
| Callsign | DAL357 |
|---|---|
| Flight time | 0h 59m |
| Altitude | 39000 |
| Route | RUGGD3 PERTY KAMPR LONGZ4 |
| Aircraft | A359/H-SDE2E3GHIJ3J4J5LM1ORWXY/LB1D1 |
Departure
| Time | 2026-05-08 04:08 |
|---|---|
| Airport | Salt Lake City International Airport (KSLC) |
Arrival
| Time | 2026-05-08 05:07 |
|---|---|
| Airport | Denver International Airport (KDEN) |
| Time | Latitude | Longitude | Altitude | Speed | Heading |
|---|---|---|---|---|---|
| 2026-05-08 03:38 | 40.78953 | -111.98835 | 4236 ft | 0 kts | 175° |
| 2026-05-08 03:55 | 40.78971 | -111.98837 | 4233 ft | 3 kts | 175° |
| 2026-05-08 03:55 | 40.78991 | -111.98836 | 4234 ft | 3 kts | 208° |
| 2026-05-08 03:55 | 40.79006 | -111.98819 | 4233 ft | 3 kts | 250° |
| 2026-05-08 03:56 | 40.79009 | -111.98808 | 4233 ft | 0 kts | 268° |
| 2026-05-08 04:00 | 40.79009 | -111.98810 | 4236 ft | 2 kts | 268° |
| 2026-05-08 04:01 | 40.79009 | -111.98858 | 4236 ft | 8 kts | 274° |
| 2026-05-08 04:01 | 40.79042 | -111.98940 | 4229 ft | 13 kts | 322° |
| 2026-05-08 04:01 | 40.79120 | -111.98919 | 4237 ft | 13 kts | 52° |
| 2026-05-08 04:01 | 40.79140 | -111.98776 | 4236 ft | 19 kts | 85° |
| 2026-05-08 04:02 | 40.79154 | -111.98598 | 4238 ft | 20 kts | 84° |
| 2026-05-08 04:02 | 40.79167 | -111.98413 | 4237 ft | 20 kts | 84° |
| 2026-05-08 04:02 | 40.79180 | -111.98225 | 4235 ft | 21 kts | 85° |
| 2026-05-08 04:02 | 40.79193 | -111.98034 | 4237 ft | 20 kts | 85° |
| 2026-05-08 04:03 | 40.79206 | -111.97851 | 4237 ft | 20 kts | 85° |
| 2026-05-08 04:03 | 40.79037 | -111.97716 | 4241 ft | 14 kts | 173° |
| 2026-05-08 04:03 | 40.78941 | -111.97702 | 4241 ft | 15 kts | 173° |
| 2026-05-08 04:04 | 40.78827 | -111.97688 | 4239 ft | 18 kts | 174° |
| 2026-05-08 04:04 | 40.78703 | -111.97673 | 4239 ft | 18 kts | 175° |
| 2026-05-08 04:04 | 40.78580 | -111.97657 | 4238 ft | 19 kts | 174° |
| 2026-05-08 04:04 | 40.78440 | -111.97641 | 4232 ft | 22 kts | 175° |
| 2026-05-08 04:05 | 40.78288 | -111.97624 | 4232 ft | 22 kts | 175° |
| 2026-05-08 04:05 | 40.78136 | -111.97606 | 4231 ft | 22 kts | 175° |
| 2026-05-08 04:05 | 40.77982 | -111.97588 | 4252 ft | 22 kts | 174° |
| 2026-05-08 04:05 | 40.77845 | -111.97526 | 4253 ft | 21 kts | 166° |
| 2026-05-08 04:06 | 40.77709 | -111.97510 | 4256 ft | 19 kts | 176° |
| 2026-05-08 04:06 | 40.77579 | -111.97496 | 4258 ft | 19 kts | 174° |
| 2026-05-08 04:06 | 40.77511 | -111.97487 | 4257 ft | 0 kts | 174° |
| 2026-05-08 04:06 | 40.77507 | -111.97486 | 4257 ft | 3 kts | 174° |
| 2026-05-08 04:07 | 40.77464 | -111.97461 | 4257 ft | 11 kts | 136° |
| 2026-05-08 04:07 | 40.77483 | -111.97359 | 4255 ft | 16 kts | 30° |
| 2026-05-08 04:07 | 40.77614 | -111.97339 | 4256 ft | 27 kts | 356° |
| 2026-05-08 04:07 | 40.78009 | -111.97383 | 4257 ft | 86 kts | 354° |
| 2026-05-08 04:08 | 40.78788 | -111.97466 | 4240 ft | 137 kts | 355° |
| 2026-05-08 04:08 | 40.79900 | -111.97600 | 4249 ft | 180 kts | 355° |
| 2026-05-08 04:08 | 40.81096 | -111.97754 | 4975 ft | 165 kts | 355° |
| 2026-05-08 04:08 | 40.82226 | -111.98007 | 5513 ft | 166 kts | 343° |
| 2026-05-08 04:09 | 40.83361 | -111.98421 | 5962 ft | 176 kts | 348° |
| 2026-05-08 04:09 | 40.84636 | -111.98717 | 6219 ft | 198 kts | 350° |
| 2026-05-08 04:09 | 40.86069 | -111.99012 | 6500 ft | 218 kts | 351° |
| 2026-05-08 04:09 | 40.87638 | -111.99330 | 6704 ft | 238 kts | 350° |
| 2026-05-08 04:10 | 40.89324 | -111.99652 | 7006 ft | 256 kts | 351° |
| 2026-05-08 04:10 | 40.91143 | -111.99977 | 7450 ft | 270 kts | 351° |
| 2026-05-08 04:10 | 40.93033 | -112.00310 | 8111 ft | 276 kts | 351° |
| 2026-05-08 04:10 | 40.94944 | -112.00639 | 8926 ft | 278 kts | 350° |
| 2026-05-08 04:11 | 40.96868 | -112.00946 | 9812 ft | 279 kts | 351° |
| 2026-05-08 04:11 | 40.98815 | -112.01236 | 10457 ft | 289 kts | 351° |
| 2026-05-08 04:11 | 41.00879 | -112.01530 | 10789 ft | 308 kts | 351° |
| 2026-05-08 04:11 | 41.03073 | -112.01838 | 11124 ft | 326 kts | 351° |
| 2026-05-08 04:12 | 41.05403 | -112.02001 | 11505 ft | 344 kts | 359° |
| 2026-05-08 04:12 | 41.07789 | -112.01404 | 12097 ft | 357 kts | 16° |
| 2026-05-08 04:12 | 41.09958 | -111.99710 | 12791 ft | 371 kts | 38° |
| 2026-05-08 04:12 | 41.11548 | -111.96952 | 13406 ft | 386 kts | 61° |
| 2026-05-08 04:13 | 41.12282 | -111.93488 | 13993 ft | 398 kts | 84° |
| 2026-05-08 04:13 | 41.12014 | -111.89822 | 14593 ft | 404 kts | 106° |
| 2026-05-08 04:13 | 41.10768 | -111.86497 | 15275 ft | 406 kts | 128° |
| 2026-05-08 04:13 | 41.08842 | -111.83765 | 15921 ft | 404 kts | 138° |
| 2026-05-08 04:14 | 41.06829 | -111.81123 | 16385 ft | 412 kts | 135° |
| 2026-05-08 04:14 | 41.04883 | -111.78291 | 16925 ft | 418 kts | 130° |
| 2026-05-08 04:14 | 41.03047 | -111.75275 | 17471 ft | 424 kts | 127° |
| 2026-05-08 04:14 | 41.01331 | -111.72080 | 18051 ft | 427 kts | 122° |
| 2026-05-08 04:15 | 40.99764 | -111.68719 | 18592 ft | 430 kts | 118° |
| 2026-05-08 04:15 | 40.98376 | -111.65208 | 19167 ft | 431 kts | 113° |
| 2026-05-08 04:15 | 40.97184 | -111.61564 | 19738 ft | 432 kts | 108° |
| 2026-05-08 04:15 | 40.96223 | -111.57798 | 20339 ft | 432 kts | 103° |
| 2026-05-08 04:16 | 40.95385 | -111.54031 | 20939 ft | 434 kts | 107° |
| 2026-05-08 04:16 | 40.94203 | -111.50345 | 21637 ft | 437 kts | 114° |
| 2026-05-08 04:16 | 40.92828 | -111.46750 | 22285 ft | 439 kts | 114° |
| 2026-05-08 04:16 | 40.91576 | -111.43058 | 22863 ft | 440 kts | 108° |
| 2026-05-08 04:17 | 40.90677 | -111.39199 | 23506 ft | 439 kts | 99° |
| 2026-05-08 04:17 | 40.90178 | -111.35223 | 23993 ft | 440 kts | 94° |
| 2026-05-08 04:17 | 40.89781 | -111.31191 | 24421 ft | 444 kts | 94° |
| 2026-05-08 04:17 | 40.89360 | -111.27124 | 24878 ft | 449 kts | 94° |
| 2026-05-08 04:18 | 40.88910 | -111.23019 | 25328 ft | 453 kts | 94° |
| 2026-05-08 04:18 | 40.88439 | -111.18881 | 25755 ft | 458 kts | 94° |
| 2026-05-08 04:18 | 40.87953 | -111.14710 | 26193 ft | 462 kts | 94° |
| 2026-05-08 04:18 | 40.87455 | -111.10491 | 26621 ft | 467 kts | 94° |
| 2026-05-08 04:19 | 40.86948 | -111.06230 | 27045 ft | 472 kts | 94° |
| 2026-05-08 04:19 | 40.86433 | -111.01933 | 27513 ft | 475 kts | 94° |
| 2026-05-08 04:19 | 40.85913 | -110.97614 | 27981 ft | 478 kts | 94° |
| 2026-05-08 04:19 | 40.85386 | -110.93261 | 28406 ft | 482 kts | 94° |
| 2026-05-08 04:20 | 40.84854 | -110.88871 | 28832 ft | 486 kts | 93° |
| 2026-05-08 04:20 | 40.84315 | -110.84448 | 29273 ft | 489 kts | 93° |
| 2026-05-08 04:20 | 40.83771 | -110.79997 | 29707 ft | 492 kts | 93° |
| 2026-05-08 04:20 | 40.83232 | -110.75601 | 30202 ft | 492 kts | 93° |
| 2026-05-08 04:21 | 40.82680 | -110.71125 | 30553 ft | 496 kts | 93° |
| 2026-05-08 04:21 | 40.82125 | -110.66618 | 30843 ft | 499 kts | 93° |
| 2026-05-08 04:21 | 40.81564 | -110.62079 | 31165 ft | 503 kts | 93° |
| 2026-05-08 04:21 | 40.80998 | -110.57514 | 31465 ft | 506 kts | 93° |
| 2026-05-08 04:22 | 40.80425 | -110.52910 | 31765 ft | 509 kts | 93° |
| 2026-05-08 04:22 | 40.79846 | -110.48283 | 32039 ft | 512 kts | 93° |
| 2026-05-08 04:22 | 40.79262 | -110.43642 | 32397 ft | 514 kts | 93° |
| 2026-05-08 04:22 | 40.78672 | -110.38973 | 32684 ft | 516 kts | 93° |
| 2026-05-08 04:23 | 40.78077 | -110.34291 | 32905 ft | 519 kts | 93° |
| 2026-05-08 04:23 | 40.77483 | -110.29591 | 33152 ft | 521 kts | 93° |
| 2026-05-08 04:23 | 40.76881 | -110.24859 | 33415 ft | 524 kts | 94° |
| 2026-05-08 04:23 | 40.76275 | -110.20114 | 33660 ft | 526 kts | 94° |
| 2026-05-08 04:24 | 40.75665 | -110.15348 | 33980 ft | 527 kts | 94° |
| 2026-05-08 04:24 | 40.75054 | -110.10588 | 34331 ft | 526 kts | 93° |
| 2026-05-08 04:24 | 40.74442 | -110.05843 | 34636 ft | 525 kts | 93° |
| 2026-05-08 04:24 | 40.73873 | -110.01101 | 34927 ft | 522 kts | 90° |
| 2026-05-08 04:25 | 40.73494 | -109.96357 | 35219 ft | 518 kts | 88° |
| 2026-05-08 04:25 | 40.73220 | -109.91625 | 35483 ft | 517 kts | 87° |
| 2026-05-08 04:25 | 40.72975 | -109.86906 | 35732 ft | 517 kts | 87° |
| 2026-05-08 04:25 | 40.72722 | -109.82177 | 35968 ft | 517 kts | 87° |
| 2026-05-08 04:26 | 40.72452 | -109.77519 | 36282 ft | 516 kts | 87° |
| 2026-05-08 04:26 | 40.72157 | -109.72793 | 36557 ft | 516 kts | 88° |
| 2026-05-08 04:26 | 40.71843 | -109.68070 | 36789 ft | 517 kts | 88° |
| 2026-05-08 04:26 | 40.71517 | -109.63354 | 37017 ft | 517 kts | 88° |
| 2026-05-08 04:27 | 40.71185 | -109.58640 | 37276 ft | 516 kts | 88° |
| 2026-05-08 04:27 | 40.70851 | -109.53935 | 37510 ft | 515 kts | 88° |
| 2026-05-08 04:27 | 40.70518 | -109.49236 | 37734 ft | 515 kts | 88° |
| 2026-05-08 04:27 | 40.70184 | -109.44541 | 37943 ft | 515 kts | 88° |
| 2026-05-08 04:28 | 40.69848 | -109.39832 | 38080 ft | 516 kts | 88° |
| 2026-05-08 04:28 | 40.69510 | -109.35121 | 38280 ft | 516 kts | 88° |
| 2026-05-08 04:28 | 40.69172 | -109.30421 | 38497 ft | 515 kts | 88° |
| 2026-05-08 04:28 | 40.68831 | -109.25724 | 38678 ft | 515 kts | 88° |
| 2026-05-08 04:29 | 40.68604 | -109.22612 | 38788 ft | 514 kts | 88° |
| 2026-05-08 04:29 | 40.68260 | -109.17922 | 38920 ft | 515 kts | 88° |
| 2026-05-08 04:29 | 40.67566 | -109.08506 | 38973 ft | 516 kts | 88° |
| 2026-05-08 04:30 | 40.66885 | -108.99112 | 38960 ft | 514 kts | 88° |
| 2026-05-08 04:30 | 40.66242 | -108.89737 | 38962 ft | 514 kts | 88° |
| 2026-05-08 04:31 | 40.65588 | -108.80367 | 38951 ft | 515 kts | 88° |
| 2026-05-08 04:31 | 40.64921 | -108.70988 | 38939 ft | 514 kts | 88° |
| 2026-05-08 04:32 | 40.64276 | -108.62026 | 38947 ft | 512 kts | 88° |
| 2026-05-08 04:32 | 40.63597 | -108.52691 | 38946 ft | 512 kts | 88° |
| 2026-05-08 04:33 | 40.62932 | -108.43642 | 38945 ft | 512 kts | 89° |
| 2026-05-08 04:33 | 40.62273 | -108.34756 | 38952 ft | 514 kts | 89° |
| 2026-05-08 04:34 | 40.61653 | -108.26505 | 38946 ft | 515 kts | 89° |
| 2026-05-08 04:34 | 40.61003 | -108.17926 | 38947 ft | 515 kts | 89° |
| 2026-05-08 04:35 | 40.60285 | -108.08544 | 38954 ft | 515 kts | 89° |
| 2026-05-08 04:35 | 40.59559 | -107.99166 | 38959 ft | 515 kts | 89° |
| 2026-05-08 04:36 | 40.58826 | -107.89788 | 38961 ft | 515 kts | 89° |
| 2026-05-08 04:36 | 40.58084 | -107.80408 | 39031 ft | 515 kts | 90° |
| 2026-05-08 04:37 | 40.57336 | -107.71030 | 39083 ft | 516 kts | 91° |
| 2026-05-08 04:37 | 40.56578 | -107.61641 | 39104 ft | 516 kts | 91° |
| 2026-05-08 04:38 | 40.55813 | -107.52253 | 39110 ft | 517 kts | 91° |
| 2026-05-08 04:38 | 40.55044 | -107.42922 | 39109 ft | 517 kts | 91° |
| 2026-05-08 04:39 | 40.54262 | -107.33535 | 39119 ft | 516 kts | 92° |
| 2026-05-08 04:39 | 40.53475 | -107.24161 | 39010 ft | 515 kts | 92° |
| 2026-05-08 04:40 | 40.53079 | -107.19481 | 38774 ft | 514 kts | 92° |
| 2026-05-08 04:40 | 40.52682 | -107.14822 | 38491 ft | 513 kts | 92° |
| 2026-05-08 04:40 | 40.52283 | -107.10159 | 38216 ft | 514 kts | 91° |
| 2026-05-08 04:40 | 40.51882 | -107.05487 | 37926 ft | 514 kts | 91° |
| 2026-05-08 04:41 | 40.51479 | -107.00817 | 37587 ft | 513 kts | 92° |
| 2026-05-08 04:41 | 40.51077 | -106.96182 | 36996 ft | 510 kts | 92° |
| 2026-05-08 04:41 | 40.50674 | -106.91562 | 36391 ft | 508 kts | 91° |
| 2026-05-08 04:41 | 40.50270 | -106.86949 | 35811 ft | 508 kts | 91° |
| 2026-05-08 04:42 | 40.49866 | -106.82345 | 35157 ft | 508 kts | 91° |
| 2026-05-08 04:42 | 40.49458 | -106.77731 | 34463 ft | 510 kts | 90° |
| 2026-05-08 04:42 | 40.49047 | -106.73094 | 33711 ft | 512 kts | 90° |
| 2026-05-08 04:42 | 40.48634 | -106.68462 | 33167 ft | 508 kts | 90° |
| 2026-05-08 04:43 | 40.48221 | -106.63864 | 32598 ft | 505 kts | 90° |
| 2026-05-08 04:43 | 40.47810 | -106.59300 | 32060 ft | 502 kts | 90° |
| 2026-05-08 04:43 | 40.47400 | -106.54768 | 31521 ft | 498 kts | 90° |
| 2026-05-08 04:43 | 40.46991 | -106.50261 | 30988 ft | 495 kts | 90° |
| 2026-05-08 04:44 | 40.46583 | -106.45783 | 30452 ft | 493 kts | 90° |
| 2026-05-08 04:44 | 40.46175 | -106.41327 | 29888 ft | 490 kts | 90° |
| 2026-05-08 04:44 | 40.45769 | -106.36896 | 29342 ft | 487 kts | 90° |
| 2026-05-08 04:44 | 40.45364 | -106.32505 | 28848 ft | 483 kts | 91° |
| 2026-05-08 04:45 | 40.44959 | -106.28142 | 28333 ft | 479 kts | 92° |
| 2026-05-08 04:45 | 40.44557 | -106.23823 | 27831 ft | 475 kts | 92° |
| 2026-05-08 04:45 | 40.44156 | -106.19532 | 27346 ft | 471 kts | 92° |
| 2026-05-08 04:45 | 40.43756 | -106.15279 | 26855 ft | 468 kts | 92° |
| 2026-05-08 04:46 | 40.43359 | -106.11059 | 26373 ft | 464 kts | 93° |
| 2026-05-08 04:46 | 40.42963 | -106.06873 | 25859 ft | 461 kts | 93° |
| 2026-05-08 04:46 | 40.42573 | -106.02766 | 25419 ft | 457 kts | 94° |
| 2026-05-08 04:46 | 40.42180 | -105.98637 | 24946 ft | 455 kts | 94° |
| 2026-05-08 04:47 | 40.41787 | -105.94528 | 24451 ft | 453 kts | 95° |
| 2026-05-08 04:47 | 40.41395 | -105.90445 | 23996 ft | 450 kts | 95° |
| 2026-05-08 04:47 | 40.41002 | -105.86381 | 23471 ft | 448 kts | 95° |
| 2026-05-08 04:47 | 40.40611 | -105.82348 | 22950 ft | 444 kts | 95° |
| 2026-05-08 04:48 | 40.40222 | -105.78351 | 22655 ft | 435 kts | 95° |
| 2026-05-08 04:48 | 40.39842 | -105.74473 | 22508 ft | 422 kts | 95° |
| 2026-05-08 04:48 | 40.39473 | -105.70716 | 22357 ft | 410 kts | 95° |
| 2026-05-08 04:48 | 40.39112 | -105.67025 | 21897 ft | 406 kts | 95° |
| 2026-05-08 04:49 | 40.38755 | -105.63361 | 21459 ft | 403 kts | 96° |
| 2026-05-08 04:49 | 40.38358 | -105.59747 | 21098 ft | 398 kts | 99° |
| 2026-05-08 04:49 | 40.37786 | -105.56216 | 20725 ft | 395 kts | 102° |
| 2026-05-08 04:49 | 40.37184 | -105.52714 | 20331 ft | 392 kts | 101° |
| 2026-05-08 04:50 | 40.36600 | -105.49262 | 20110 ft | 383 kts | 101° |
| 2026-05-08 04:50 | 40.36043 | -105.45906 | 19994 ft | 371 kts | 101° |
| 2026-05-08 04:50 | 40.35503 | -105.42618 | 19658 ft | 368 kts | 101° |
| 2026-05-08 04:50 | 40.34968 | -105.39352 | 19288 ft | 365 kts | 101° |
| 2026-05-08 04:51 | 40.34137 | -105.36220 | 18939 ft | 362 kts | 120° |
| 2026-05-08 04:51 | 40.32727 | -105.33508 | 18704 ft | 360 kts | 128° |
| 2026-05-08 04:51 | 40.31185 | -105.30908 | 18440 ft | 362 kts | 128° |
| 2026-05-08 04:51 | 40.29629 | -105.28310 | 18191 ft | 362 kts | 129° |
| 2026-05-08 04:52 | 40.28081 | -105.25715 | 17912 ft | 361 kts | 128° |
| 2026-05-08 04:52 | 40.26543 | -105.23127 | 17650 ft | 359 kts | 128° |
| 2026-05-08 04:52 | 40.25031 | -105.20585 | 17398 ft | 358 kts | 128° |
| 2026-05-08 04:52 | 40.23507 | -105.18021 | 17138 ft | 357 kts | 128° |
| 2026-05-08 04:53 | 40.21983 | -105.15457 | 16867 ft | 355 kts | 128° |
| 2026-05-08 04:53 | 40.20470 | -105.12912 | 16567 ft | 354 kts | 128° |
| 2026-05-08 04:53 | 40.18959 | -105.10373 | 16309 ft | 353 kts | 128° |
| 2026-05-08 04:53 | 40.17454 | -105.07844 | 16046 ft | 351 kts | 128° |
| 2026-05-08 04:54 | 40.15959 | -105.05327 | 15784 ft | 350 kts | 128° |
| 2026-05-08 04:54 | 40.14437 | -105.02850 | 15477 ft | 348 kts | 133° |
| 2026-05-08 04:54 | 40.12763 | -105.00576 | 15252 ft | 346 kts | 136° |
| 2026-05-08 04:54 | 40.11048 | -104.98367 | 14892 ft | 344 kts | 136° |
| 2026-05-08 04:55 | 40.09345 | -104.96183 | 14637 ft | 343 kts | 136° |
| 2026-05-08 04:55 | 40.07645 | -104.94000 | 14414 ft | 342 kts | 136° |
| 2026-05-08 04:55 | 40.05955 | -104.91828 | 14194 ft | 340 kts | 137° |
| 2026-05-08 04:55 | 40.04283 | -104.89678 | 13943 ft | 335 kts | 137° |
| 2026-05-08 04:56 | 40.02627 | -104.87552 | 13691 ft | 333 kts | 137° |
| 2026-05-08 04:56 | 40.00980 | -104.85435 | 13437 ft | 331 kts | 137° |
| 2026-05-08 04:56 | 39.99366 | -104.83362 | 13207 ft | 329 kts | 137° |
| 2026-05-08 04:56 | 39.97621 | -104.81456 | 13005 ft | 325 kts | 151° |
| 2026-05-08 04:57 | 39.95523 | -104.80524 | 12976 ft | 316 kts | 178° |
| 2026-05-08 04:57 | 39.93334 | -104.80447 | 12989 ft | 315 kts | 184° |
| 2026-05-08 04:57 | 39.91154 | -104.80519 | 12976 ft | 309 kts | 185° |
| 2026-05-08 04:57 | 39.89062 | -104.80590 | 12980 ft | 292 kts | 185° |
| 2026-05-08 04:58 | 39.87071 | -104.80652 | 12897 ft | 281 kts | 185° |
| 2026-05-08 04:58 | 39.85144 | -104.80710 | 12665 ft | 274 kts | 185° |
| 2026-05-08 04:58 | 39.83248 | -104.80766 | 12355 ft | 271 kts | 185° |
| 2026-05-08 04:58 | 39.81369 | -104.80820 | 12027 ft | 269 kts | 185° |
| 2026-05-08 04:59 | 39.79517 | -104.80871 | 11554 ft | 265 kts | 185° |
| 2026-05-08 04:59 | 39.77681 | -104.80921 | 11044 ft | 263 kts | 184° |
| 2026-05-08 04:59 | 39.75880 | -104.80933 | 10779 ft | 257 kts | 183° |
| 2026-05-08 04:59 | 39.74084 | -104.80935 | 10262 ft | 258 kts | 183° |
| 2026-05-08 05:00 | 39.72303 | -104.80939 | 9826 ft | 253 kts | 183° |
| 2026-05-08 05:00 | 39.70551 | -104.80947 | 9325 ft | 250 kts | 183° |
| 2026-05-08 05:00 | 39.68821 | -104.80954 | 8812 ft | 247 kts | 183° |
| 2026-05-08 05:00 | 39.67107 | -104.80953 | 8333 ft | 245 kts | 181° |
| 2026-05-08 05:01 | 39.65504 | -104.80392 | 8039 ft | 235 kts | 149° |
| 2026-05-08 05:01 | 39.64442 | -104.78895 | 8015 ft | 226 kts | 116° |
| 2026-05-08 05:01 | 39.64110 | -104.76912 | 8008 ft | 227 kts | 92° |
| 2026-05-08 05:01 | 39.64114 | -104.74860 | 7997 ft | 228 kts | 87° |
| 2026-05-08 05:02 | 39.64161 | -104.72804 | 7996 ft | 228 kts | 88° |
| 2026-05-08 05:02 | 39.64399 | -104.70791 | 8008 ft | 227 kts | 65° |
| 2026-05-08 05:02 | 39.65367 | -104.69249 | 8000 ft | 221 kts | 32° |
| 2026-05-08 05:02 | 39.66727 | -104.68371 | 7999 ft | 218 kts | 17° |
| 2026-05-08 05:03 | 39.68194 | -104.67905 | 7999 ft | 217 kts | 5° |
| 2026-05-08 05:03 | 39.69689 | -104.67856 | 8001 ft | 215 kts | 355° |
| 2026-05-08 05:03 | 39.71178 | -104.67981 | 8001 ft | 214 kts | 352° |
| 2026-05-08 05:03 | 39.72641 | -104.68316 | 8017 ft | 213 kts | 343° |
| 2026-05-08 05:04 | 39.74067 | -104.68792 | 7901 ft | 206 kts | 344° |
| 2026-05-08 05:04 | 39.75445 | -104.68975 | 7682 ft | 193 kts | 0° |
| 2026-05-08 05:04 | 39.76716 | -104.68722 | 7508 ft | 177 kts | 8° |
| 2026-05-08 05:04 | 39.77937 | -104.68705 | 7029 ft | 179 kts | 355° |
| 2026-05-08 05:05 | 39.79155 | -104.68782 | 6789 ft | 168 kts | 354° |
| 2026-05-08 05:05 | 39.80292 | -104.68816 | 6639 ft | 161 kts | 357° |
| 2026-05-08 05:05 | 39.81401 | -104.68799 | 6436 ft | 158 kts | 360° |
| 2026-05-08 05:05 | 39.82507 | -104.68778 | 6219 ft | 159 kts | 2° |
| 2026-05-08 05:06 | 39.83606 | -104.68790 | 5969 ft | 156 kts | 2° |
| 2026-05-08 05:06 | 39.84687 | -104.68746 | 5747 ft | 157 kts | 5° |
| 2026-05-08 05:06 | 39.85766 | -104.68743 | 5546 ft | 153 kts | 8° |
| 2026-05-08 05:06 | 39.86830 | -104.68722 | 5378 ft | 153 kts | 6° |
| 2026-05-08 05:07 | 39.87835 | -104.68716 | 5373 ft | 135 kts | 9° |
| 2026-05-08 05:07 | 39.88612 | -104.68695 | 5359 ft | 81 kts | 1° |
| 2026-05-08 05:07 | 39.88961 | -104.68691 | 5365 ft | 36 kts | 1° |
| 2026-05-08 05:07 | 39.89171 | -104.68687 | 5367 ft | 19 kts | 1° |
| 2026-05-08 05:08 | 39.89285 | -104.68637 | 5367 ft | 17 kts | 62° |
| 2026-05-08 05:08 | 39.89296 | -104.68526 | 5369 ft | 10 kts | 91° |
| 2026-05-08 05:08 | 39.89247 | -104.68477 | 5367 ft | 13 kts | 177° |
| 2026-05-08 05:08 | 39.89114 | -104.68476 | 5368 ft | 25 kts | 180° |
| 2026-05-08 05:09 | 39.88925 | -104.68480 | 5365 ft | 28 kts | 180° |
| 2026-05-08 05:09 | 39.88725 | -104.68480 | 5362 ft | 29 kts | 180° |
| 2026-05-08 05:09 | 39.88524 | -104.68480 | 5363 ft | 29 kts | 180° |
| 2026-05-08 05:09 | 39.88324 | -104.68482 | 5365 ft | 28 kts | 180° |
| 2026-05-08 05:10 | 39.88138 | -104.68491 | 5365 ft | 26 kts | 179° |
| 2026-05-08 05:10 | 39.87785 | -104.68492 | 5368 ft | 25 kts | 180° |
| 2026-05-08 05:10 | 39.87611 | -104.68492 | 5367 ft | 25 kts | 180° |
| 2026-05-08 05:11 | 39.87435 | -104.68493 | 5364 ft | 26 kts | 180° |
| 2026-05-08 05:11 | 39.87250 | -104.68494 | 5363 ft | 27 kts | 180° |
| 2026-05-08 05:11 | 39.87065 | -104.68494 | 5364 ft | 27 kts | 180° |
| 2026-05-08 05:11 | 39.86880 | -104.68495 | 5365 ft | 26 kts | 180° |
| 2026-05-08 05:12 | 39.86707 | -104.68495 | 5370 ft | 24 kts | 180° |
| 2026-05-08 05:12 | 39.86555 | -104.68496 | 5370 ft | 16 kts | 180° |
| 2026-05-08 05:12 | 39.86451 | -104.68484 | 5371 ft | 13 kts | 146° |
| 2026-05-08 05:12 | 39.86427 | -104.68389 | 5369 ft | 12 kts | 89° |
| 2026-05-08 05:13 | 39.86427 | -104.68310 | 5377 ft | 9 kts | 90° |